This is the latest recevied weather packets stored in our database for station/object OE-11361. If no packets are shown the sender has not sent any weather packets the latest 10 day(s).
| Time | Temp. | Humidity | Pressure | Rain* | Wind** | Luminosity | Snow |
|---|---|---|---|---|---|---|---|
| 1787987477 | 16.67° C | 74% | 1018.5 hPa | 0 mm | - | 338 W/m² | - |
| 1787987104 | 16.11° C | 77% | 1018.8 hPa | 0 mm | - | 186 W/m² | - |
| 1787986504 | 16.11° C | 80% | 1018.7 hPa | 0 mm | - | 372 W/m² | - |
| 1787985677 | 15° C | 89% | 1019 hPa | 0 mm | - | 165 W/m² | - |
| 1787985303 | 14.44° C | 90% | 1019.1 hPa | 0 mm | - | 124 W/m² | - |
| 1787984704 | 14.44° C | 91% | 1019 hPa | 0 mm | - | 69 W/m² | - |
| 1787983877 | 14.44° C | 89% | 1018.8 hPa | 0 mm | - | 62 W/m² | - |
| 1787982904 | 14.44° C | 86% | 1018.4 hPa | 0 mm | - | 55 W/m² | - |
| 1787982077 | 14.44° C | 88% | 1018.4 hPa | 0 mm | - | 48 W/m² | - |
| 1787981704 | 14.44° C | 88% | 1018.3 hPa | 0 mm | - | 48 W/m² | - |
| 1787981103 | 14.44° C | 90% | 1018.3 hPa | 0 mm | - | 41 W/m² | - |
| 1787980276 | 13.89° C | 89% | 1018.5 hPa | 0 mm | - | 14 W/m² | - |
| 1787979903 | 14.44° C | 86% | 1018.5 hPa | 0 mm | - | 14 W/m² | - |
| 1787979304 | 13.89° C | 90% | 1018.4 hPa | 0 mm | - | 7 W/m² | - |
| 1787978477 | 13.89° C | 89% | 1018.8 hPa | 0 mm | - | 7 W/m² | - |
| 1787978103 | 14.44° C | 87% | 1018.7 hPa | 0 mm | - | 0 W/m² | - |
| 1787977504 | 14.44° C | 87% | 1018.8 hPa | 0 mm | - | 0 W/m² | - |
| 1787976677 | 14.44° C | 86% | 1018.8 hPa | 0 mm | - | 0 W/m² | - |
| 1787976304 | 14.44° C | 87% | 1018.7 hPa | 0 mm | - | 0 W/m² | - |
| 1787975704 | 15° C | 83% | 1018.7 hPa | 0 mm | - | 0 W/m² | - |
| 1787975104 | 14.44° C | 92% | 1018.8 hPa | 0 mm | - | 0 W/m² | - |
| 1787974503 | 14.44° C | 87% | 1018.8 hPa | 0 mm | - | 0 W/m² | - |
| 1787973904 | 15° C | 84% | 1018.9 hPa | 0 mm | - | 0 W/m² | - |
| 1787973076 | 14.44° C | 86% | 1018.8 hPa | 0 mm | - | 0 W/m² | - |
| 1787972704 | 14.44° C | 85% | 1018.9 hPa | 0 mm | - | 0 W/m² | - |
* Rain latest hour (hover to see other rain measurements)
** Current wind speed in m/s (hover to see current wind gust speed)